sensor_id;sensor_type;location;lat;lon;timestamp;P1;durP1;ratioP1;P2;durP2;ratioP2
75488;SDS011;64069;46.396;48.102;2022-10-15T00:00:45;18.05;;;8.82;;
75488;SDS011;64069;46.396;48.102;2022-10-15T00:03:11;22.23;;;9.05;;
75488;SDS011;64069;46.396;48.102;2022-10-15T00:05:39;17.92;;;8.15;;
75488;SDS011;64069;46.396;48.102;2022-10-15T00:08:06;22.77;;;9.35;;
75488;SDS011;64069;46.396;48.102;2022-10-15T00:10:34;23.35;;;8.45;;
75488;SDS011;64069;46.396;48.102;2022-10-15T00:13:01;22.80;;;9.48;;
75488;SDS011;64069;46.396;48.102;2022-10-15T00:15:27;25.02;;;10.35;;
75488;SDS011;64069;46.396;48.102;2022-10-15T00:17:54;23.73;;;10.40;;
75488;SDS011;64069;46.396;48.102;2022-10-15T00:20:20;27.08;;;10.18;;
75488;SDS011;64069;46.396;48.102;2022-10-15T00:22:47;20.40;;;10.15;;
75488;SDS011;64069;46.396;48.102;2022-10-15T00:25:13;20.25;;;9.02;;
75488;SDS011;64069;46.396;48.102;2022-10-15T00:27:39;19.77;;;9.10;;
75488;SDS011;64069;46.396;48.102;2022-10-15T00:30:05;16.90;;;7.68;;
75488;SDS011;64069;46.396;48.102;2022-10-15T00:32:31;19.50;;;8.30;;
75488;SDS011;64069;46.396;48.102;2022-10-15T00:34:58;17.23;;;6.95;;
75488;SDS011;64069;46.396;48.102;2022-10-15T00:37:24;18.02;;;7.63;;
75488;SDS011;64069;46.396;48.102;2022-10-15T00:39:50;20.50;;;6.97;;
75488;SDS011;64069;46.396;48.102;2022-10-15T00:42:16;16.23;;;6.60;;
75488;SDS011;64069;46.396;48.102;2022-10-15T00:44:46;15.73;;;7.45;;
75488;SDS011;64069;46.396;48.102;2022-10-15T00:47:22;20.80;;;7.30;;
75488;SDS011;64069;46.396;48.102;2022-10-15T00:50:21;15.52;;;6.68;;
75488;SDS011;64069;46.396;48.102;2022-10-15T00:52:59;14.80;;;6.70;;
75488;SDS011;64069;46.396;48.102;2022-10-15T00:55:38;14.15;;;6.28;;
75488;SDS011;64069;46.396;48.102;2022-10-15T01:00:40;17.30;;;6.13;;
75488;SDS011;64069;46.396;48.102;2022-10-15T01:03:06;10.77;;;5.55;;
75488;SDS011;64069;46.396;48.102;2022-10-15T01:05:33;10.10;;;5.10;;
75488;SDS011;64069;46.396;48.102;2022-10-15T01:08:01;12.18;;;6.05;;
75488;SDS011;64069;46.396;48.102;2022-10-15T01:10:30;13.30;;;6.22;;
75488;SDS011;64069;46.396;48.102;2022-10-15T01:13:14;11.27;;;4.93;;
75488;SDS011;64069;46.396;48.102;2022-10-15T01:16:09;13.93;;;5.95;;
75488;SDS011;64069;46.396;48.102;2022-10-15T01:18:46;14.32;;;5.88;;
75488;SDS011;64069;46.396;48.102;2022-10-15T01:39:54;11.93;;;5.03;;
75488;SDS011;64069;46.396;48.102;2022-10-15T01:45:39;11.73;;;5.82;;
75488;SDS011;64069;46.396;48.102;2022-10-15T01:48:30;13.20;;;5.47;;
75488;SDS011;64069;46.396;48.102;2022-10-15T01:50:59;13.30;;;6.05;;
75488;SDS011;64069;46.396;48.102;2022-10-15T01:53:28;14.70;;;6.50;;
75488;SDS011;64069;46.396;48.102;2022-10-15T01:56:08;33.60;;;6.93;;
75488;SDS011;64069;46.396;48.102;2022-10-15T01:58:39;19.65;;;7.30;;
75488;SDS011;64069;46.396;48.102;2022-10-15T02:01:09;38.03;;;6.47;;
75488;SDS011;64069;46.396;48.102;2022-10-15T02:03:47;10.30;;;5.32;;
75488;SDS011;64069;46.396;48.102;2022-10-15T02:06:17;11.07;;;5.43;;
75488;SDS011;64069;46.396;48.102;2022-10-15T02:11:52;14.70;;;6.45;;
75488;SDS011;64069;46.396;48.102;2022-10-15T02:14:36;27.38;;;8.32;;
75488;SDS011;64069;46.396;48.102;2022-10-15T02:17:10;31.48;;;9.60;;
75488;SDS011;64069;46.396;48.102;2022-10-15T02:19:53;15.10;;;6.30;;
75488;SDS011;64069;46.396;48.102;2022-10-15T02:22:27;16.23;;;6.50;;
75488;SDS011;64069;46.396;48.102;2022-10-15T02:25:13;12.38;;;6.32;;
75488;SDS011;64069;46.396;48.102;2022-10-15T02:27:46;16.25;;;6.53;;
75488;SDS011;64069;46.396;48.102;2022-10-15T02:30:13;15.57;;;7.25;;
75488;SDS011;64069;46.396;48.102;2022-10-15T02:32:42;22.67;;;7.90;;
75488;SDS011;64069;46.396;48.102;2022-10-15T02:35:11;22.05;;;7.68;;
75488;SDS011;64069;46.396;48.102;2022-10-15T02:37:42;18.55;;;7.63;;
75488;SDS011;64069;46.396;48.102;2022-10-15T02:40:17;20.80;;;8.15;;
75488;SDS011;64069;46.396;48.102;2022-10-15T02:42:47;18.25;;;7.05;;
75488;SDS011;64069;46.396;48.102;2022-10-15T02:45:15;19.70;;;8.43;;
75488;SDS011;64069;46.396;48.102;2022-10-15T02:47:41;18.20;;;7.18;;
75488;SDS011;64069;46.396;48.102;2022-10-15T02:50:07;18.42;;;7.25;;
75488;SDS011;64069;46.396;48.102;2022-10-15T02:52:33;21.15;;;6.72;;
75488;SDS011;64069;46.396;48.102;2022-10-15T02:54:59;22.02;;;8.00;;
75488;SDS011;64069;46.396;48.102;2022-10-15T02:57:25;25.80;;;8.30;;
75488;SDS011;64069;46.396;48.102;2022-10-15T02:59:51;19.25;;;7.97;;
75488;SDS011;64069;46.396;48.102;2022-10-15T03:02:18;24.38;;;7.20;;
75488;SDS011;64069;46.396;48.102;2022-10-15T03:04:44;21.10;;;7.43;;
75488;SDS011;64069;46.396;48.102;2022-10-15T03:07:10;23.48;;;6.82;;
75488;SDS011;64069;46.396;48.102;2022-10-15T03:09:37;27.23;;;7.10;;
75488;SDS011;64069;46.396;48.102;2022-10-15T03:12:04;16.08;;;7.22;;
75488;SDS011;64069;46.396;48.102;2022-10-15T03:14:31;20.10;;;7.47;;
75488;SDS011;64069;46.396;48.102;2022-10-15T03:16:59;23.58;;;7.00;;
75488;SDS011;64069;46.396;48.102;2022-10-15T03:19:26;17.67;;;7.88;;
75488;SDS011;64069;46.396;48.102;2022-10-15T03:21:52;19.33;;;6.35;;
75488;SDS011;64069;46.396;48.102;2022-10-15T03:24:18;12.18;;;5.85;;
75488;SDS011;64069;46.396;48.102;2022-10-15T03:26:44;19.98;;;5.88;;
75488;SDS011;64069;46.396;48.102;2022-10-15T03:29:11;16.67;;;5.38;;
75488;SDS011;64069;46.396;48.102;2022-10-15T03:31:43;15.63;;;6.05;;
75488;SDS011;64069;46.396;48.102;2022-10-15T03:34:09;24.80;;;5.82;;
75488;SDS011;64069;46.396;48.102;2022-10-15T03:36:35;16.10;;;4.65;;
75488;SDS011;64069;46.396;48.102;2022-10-15T03:39:04;22.05;;;4.43;;
75488;SDS011;64069;46.396;48.102;2022-10-15T03:41:30;38.17;;;4.55;;
75488;SDS011;64069;46.396;48.102;2022-10-15T03:44:01;35.85;;;4.88;;
75488;SDS011;64069;46.396;48.102;2022-10-15T03:46:30;39.55;;;5.22;;
75488;SDS011;64069;46.396;48.102;2022-10-15T03:48:58;23.27;;;4.20;;
75488;SDS011;64069;46.396;48.102;2022-10-15T03:51:25;38.03;;;6.40;;
75488;SDS011;64069;46.396;48.102;2022-10-15T03:53:56;49.95;;;5.78;;
75488;SDS011;64069;46.396;48.102;2022-10-15T03:56:23;38.50;;;6.63;;
75488;SDS011;64069;46.396;48.102;2022-10-15T03:58:49;88.00;;;8.57;;
75488;SDS011;64069;46.396;48.102;2022-10-15T04:01:16;69.70;;;6.53;;
75488;SDS011;64069;46.396;48.102;2022-10-15T04:03:43;74.88;;;7.32;;
75488;SDS011;64069;46.396;48.102;2022-10-15T04:06:09;31.90;;;7.30;;
75488;SDS011;64069;46.396;48.102;2022-10-15T04:08:37;22.13;;;6.07;;
75488;SDS011;64069;46.396;48.102;2022-10-15T04:11:17;66.55;;;8.90;;
75488;SDS011;64069;46.396;48.102;2022-10-15T04:13:46;40.58;;;6.32;;
75488;SDS011;64069;46.396;48.102;2022-10-15T04:16:14;43.20;;;6.82;;
75488;SDS011;64069;46.396;48.102;2022-10-15T04:18:40;31.83;;;5.88;;
75488;SDS011;64069;46.396;48.102;2022-10-15T04:21:06;31.02;;;6.45;;
75488;SDS011;64069;46.396;48.102;2022-10-15T04:23:32;47.05;;;7.97;;
75488;SDS011;64069;46.396;48.102;2022-10-15T04:26:24;73.63;;;11.32;;
75488;SDS011;64069;46.396;48.102;2022-10-15T04:28:50;39.97;;;7.82;;
75488;SDS011;64069;46.396;48.102;2022-10-15T04:31:18;61.25;;;11.65;;
75488;SDS011;64069;46.396;48.102;2022-10-15T04:33:48;49.08;;;9.38;;
75488;SDS011;64069;46.396;48.102;2022-10-15T04:36:15;72.97;;;10.88;;
75488;SDS011;64069;46.396;48.102;2022-10-15T04:38:55;114.40;;;16.33;;
75488;SDS011;64069;46.396;48.102;2022-10-15T04:41:34;93.15;;;14.05;;
75488;SDS011;64069;46.396;48.102;2022-10-15T04:44:07;82.32;;;14.20;;
75488;SDS011;64069;46.396;48.102;2022-10-15T04:46:33;60.75;;;12.68;;
75488;SDS011;64069;46.396;48.102;2022-10-15T04:49:17;81.43;;;15.45;;
75488;SDS011;64069;46.396;48.102;2022-10-15T04:51:44;36.97;;;10.00;;
75488;SDS011;64069;46.396;48.102;2022-10-15T04:54:18;52.70;;;10.38;;
75488;SDS011;64069;46.396;48.102;2022-10-15T04:57:03;42.15;;;11.73;;
75488;SDS011;64069;46.396;48.102;2022-10-15T04:59:36;37.85;;;11.57;;
75488;SDS011;64069;46.396;48.102;2022-10-15T05:02:31;37.60;;;10.75;;
75488;SDS011;64069;46.396;48.102;2022-10-15T05:05:15;33.97;;;10.07;;
75488;SDS011;64069;46.396;48.102;2022-10-15T05:08:02;22.92;;;9.90;;
75488;SDS011;64069;46.396;48.102;2022-10-15T05:10:33;25.33;;;9.27;;
75488;SDS011;64069;46.396;48.102;2022-10-15T05:13:03;29.52;;;9.80;;
75488;SDS011;64069;46.396;48.102;2022-10-15T05:15:32;20.92;;;9.80;;
75488;SDS011;64069;46.396;48.102;2022-10-15T05:17:58;34.75;;;12.27;;
75488;SDS011;64069;46.396;48.102;2022-10-15T05:20:31;48.58;;;24.58;;
75488;SDS011;64069;46.396;48.102;2022-10-15T05:22:57;23.52;;;11.52;;
75488;SDS011;64069;46.396;48.102;2022-10-15T05:25:29;22.15;;;7.35;;
75488;SDS011;64069;46.396;48.102;2022-10-15T05:27:55;15.77;;;7.30;;
75488;SDS011;64069;46.396;48.102;2022-10-15T05:30:22;12.02;;;5.72;;
75488;SDS011;64069;46.396;48.102;2022-10-15T05:32:51;16.27;;;6.10;;
75488;SDS011;64069;46.396;48.102;2022-10-15T05:35:19;14.25;;;6.28;;
75488;SDS011;64069;46.396;48.102;2022-10-15T05:37:58;16.00;;;5.85;;
75488;SDS011;64069;46.396;48.102;2022-10-15T05:40:27;10.60;;;5.63;;
75488;SDS011;64069;46.396;48.102;2022-10-15T05:43:05;11.15;;;5.28;;
75488;SDS011;64069;46.396;48.102;2022-10-15T05:45:31;14.75;;;5.75;;
75488;SDS011;64069;46.396;48.102;2022-10-15T05:48:02;10.47;;;6.10;;
75488;SDS011;64069;46.396;48.102;2022-10-15T05:50:28;20.38;;;5.72;;
75488;SDS011;64069;46.396;48.102;2022-10-15T05:52:56;16.95;;;6.47;;
75488;SDS011;64069;46.396;48.102;2022-10-15T05:55:48;9.77;;;5.22;;
75488;SDS011;64069;46.396;48.102;2022-10-15T05:58:18;10.32;;;5.15;;
75488;SDS011;64069;46.396;48.102;2022-10-15T06:00:44;9.45;;;4.78;;
75488;SDS011;64069;46.396;48.102;2022-10-15T06:03:11;8.90;;;3.90;;
75488;SDS011;64069;46.396;48.102;2022-10-15T06:05:38;15.90;;;5.57;;
75488;SDS011;64069;46.396;48.102;2022-10-15T06:08:04;14.98;;;5.97;;
75488;SDS011;64069;46.396;48.102;2022-10-15T06:10:33;21.50;;;8.68;;
75488;SDS011;64069;46.396;48.102;2022-10-15T06:13:00;14.65;;;4.82;;
75488;SDS011;64069;46.396;48.102;2022-10-15T06:15:26;10.13;;;4.78;;
75488;SDS011;64069;46.396;48.102;2022-10-15T06:17:52;14.27;;;4.82;;
75488;SDS011;64069;46.396;48.102;2022-10-15T06:20:18;17.02;;;4.93;;
75488;SDS011;64069;46.396;48.102;2022-10-15T06:22:44;9.45;;;5.03;;
75488;SDS011;64069;46.396;48.102;2022-10-15T06:25:10;12.82;;;5.97;;
75488;SDS011;64069;46.396;48.102;2022-10-15T06:27:36;9.48;;;4.18;;
75488;SDS011;64069;46.396;48.102;2022-10-15T06:30:02;9.65;;;5.20;;
75488;SDS011;64069;46.396;48.102;2022-10-15T06:32:29;11.45;;;5.13;;
75488;SDS011;64069;46.396;48.102;2022-10-15T06:34:55;9.45;;;4.30;;
75488;SDS011;64069;46.396;48.102;2022-10-15T06:37:21;13.02;;;5.00;;
75488;SDS011;64069;46.396;48.102;2022-10-15T06:39:47;9.77;;;4.60;;
75488;SDS011;64069;46.396;48.102;2022-10-15T06:42:13;6.97;;;3.92;;
75488;SDS011;64069;46.396;48.102;2022-10-15T06:44:39;17.70;;;5.03;;
75488;SDS011;64069;46.396;48.102;2022-10-15T06:47:06;10.77;;;5.00;;
75488;SDS011;64069;46.396;48.102;2022-10-15T06:49:32;13.02;;;4.75;;
75488;SDS011;64069;46.396;48.102;2022-10-15T06:51:58;22.67;;;4.57;;
75488;SDS011;64069;46.396;48.102;2022-10-15T06:54:24;6.25;;;3.08;;
75488;SDS011;64069;46.396;48.102;2022-10-15T06:56:50;7.45;;;3.40;;
75488;SDS011;64069;46.396;48.102;2022-10-15T06:59:16;14.10;;;4.35;;
75488;SDS011;64069;46.396;48.102;2022-10-15T07:01:42;8.63;;;4.00;;
75488;SDS011;64069;46.396;48.102;2022-10-15T07:04:08;11.20;;;4.65;;
75488;SDS011;64069;46.396;48.102;2022-10-15T07:06:34;9.52;;;5.40;;
75488;SDS011;64069;46.396;48.102;2022-10-15T07:09:01;8.45;;;4.78;;
75488;SDS011;64069;46.396;48.102;2022-10-15T07:11:27;10.20;;;4.70;;
75488;SDS011;64069;46.396;48.102;2022-10-15T07:13:53;9.35;;;5.55;;
75488;SDS011;64069;46.396;48.102;2022-10-15T07:16:22;14.13;;;4.85;;
75488;SDS011;64069;46.396;48.102;2022-10-15T07:18:48;11.05;;;5.13;;
75488;SDS011;64069;46.396;48.102;2022-10-15T07:21:14;9.93;;;5.07;;
75488;SDS011;64069;46.396;48.102;2022-10-15T07:23:40;12.02;;;5.75;;
75488;SDS011;64069;46.396;48.102;2022-10-15T07:26:06;10.48;;;6.63;;
75488;SDS011;64069;46.396;48.102;2022-10-15T07:28:32;12.40;;;5.40;;
75488;SDS011;64069;46.396;48.102;2022-10-15T07:31:02;16.60;;;6.32;;
75488;SDS011;64069;46.396;48.102;2022-10-15T07:33:30;12.13;;;5.82;;
75488;SDS011;64069;46.396;48.102;2022-10-15T07:36:02;8.10;;;3.92;;
75488;SDS011;64069;46.396;48.102;2022-10-15T07:38:33;11.60;;;5.55;;
75488;SDS011;64069;46.396;48.102;2022-10-15T07:41:00;8.95;;;4.90;;
75488;SDS011;64069;46.396;48.102;2022-10-15T07:43:30;11.73;;;4.33;;
75488;SDS011;64069;46.396;48.102;2022-10-15T07:45:57;13.50;;;4.80;;
75488;SDS011;64069;46.396;48.102;2022-10-15T07:48:23;9.95;;;4.82;;
75488;SDS011;64069;46.396;48.102;2022-10-15T07:50:57;11.30;;;4.78;;
75488;SDS011;64069;46.396;48.102;2022-10-15T07:53:26;8.80;;;3.92;;
75488;SDS011;64069;46.396;48.102;2022-10-15T07:56:00;12.43;;;3.63;;
75488;SDS011;64069;46.396;48.102;2022-10-15T07:58:32;8.82;;;3.40;;
75488;SDS011;64069;46.396;48.102;2022-10-15T08:01:03;6.13;;;2.70;;
75488;SDS011;64069;46.396;48.102;2022-10-15T08:03:30;3.92;;;1.73;;
75488;SDS011;64069;46.396;48.102;2022-10-15T08:06:00;2.70;;;1.63;;
75488;SDS011;64069;46.396;48.102;2022-10-15T08:08:28;4.05;;;2.10;;
75488;SDS011;64069;46.396;48.102;2022-10-15T08:10:54;5.25;;;1.98;;
75488;SDS011;64069;46.396;48.102;2022-10-15T08:13:20;3.10;;;1.60;;
75488;SDS011;64069;46.396;48.102;2022-10-15T08:15:49;4.72;;;1.55;;
75488;SDS011;64069;46.396;48.102;2022-10-15T08:18:15;3.38;;;1.63;;
75488;SDS011;64069;46.396;48.102;2022-10-15T08:20:41;2.88;;;1.50;;
75488;SDS011;64069;46.396;48.102;2022-10-15T08:23:13;3.05;;;1.60;;
75488;SDS011;64069;46.396;48.102;2022-10-15T08:25:41;3.42;;;2.03;;
75488;SDS011;64069;46.396;48.102;2022-10-15T08:28:11;5.25;;;2.15;;
75488;SDS011;64069;46.396;48.102;2022-10-15T08:30:39;4.03;;;1.92;;
75488;SDS011;64069;46.396;48.102;2022-10-15T08:33:10;3.40;;;1.95;;
75488;SDS011;64069;46.396;48.102;2022-10-15T08:35:39;3.35;;;1.92;;
75488;SDS011;64069;46.396;48.102;2022-10-15T08:38:08;4.13;;;1.67;;
75488;SDS011;64069;46.396;48.102;2022-10-15T08:40:35;7.07;;;2.00;;
75488;SDS011;64069;46.396;48.102;2022-10-15T08:43:02;5.45;;;2.15;;
75488;SDS011;64069;46.396;48.102;2022-10-15T08:45:39;7.07;;;2.30;;
75488;SDS011;64069;46.396;48.102;2022-10-15T08:48:10;8.85;;;1.80;;
75488;SDS011;64069;46.396;48.102;2022-10-15T08:50:43;6.40;;;2.05;;
75488;SDS011;64069;46.396;48.102;2022-10-15T08:53:33;7.63;;;2.70;;
75488;SDS011;64069;46.396;48.102;2022-10-15T08:56:14;6.07;;;2.70;;
75488;SDS011;64069;46.396;48.102;2022-10-15T08:58:45;11.93;;;4.63;;
75488;SDS011;64069;46.396;48.102;2022-10-15T09:01:31;6.53;;;2.17;;
75488;SDS011;64069;46.396;48.102;2022-10-15T09:04:29;5.22;;;2.45;;
75488;SDS011;64069;46.396;48.102;2022-10-15T09:15:18;8.70;;;2.65;;
75488;SDS011;64069;46.396;48.102;2022-10-15T09:17:46;6.07;;;3.20;;
75488;SDS011;64069;46.396;48.102;2022-10-15T09:20:20;4.97;;;2.35;;
75488;SDS011;64069;46.396;48.102;2022-10-15T09:22:52;6.78;;;2.60;;
75488;SDS011;64069;46.396;48.102;2022-10-15T09:25:20;10.82;;;3.83;;
75488;SDS011;64069;46.396;48.102;2022-10-15T09:27:48;5.43;;;2.45;;
75488;SDS011;64069;46.396;48.102;2022-10-15T09:30:26;10.40;;;4.20;;
75488;SDS011;64069;46.396;48.102;2022-10-15T09:43:54;5.70;;;2.38;;
75488;SDS011;64069;46.396;48.102;2022-10-15T09:46:27;5.57;;;1.88;;
75488;SDS011;64069;46.396;48.102;2022-10-15T09:49:06;3.20;;;1.90;;
75488;SDS011;64069;46.396;48.102;2022-10-15T09:51:43;4.47;;;1.95;;
75488;SDS011;64069;46.396;48.102;2022-10-15T09:54:28;13.32;;;3.10;;
75488;SDS011;64069;46.396;48.102;2022-10-15T09:57:21;7.47;;;2.80;;
75488;SDS011;64069;46.396;48.102;2022-10-15T09:59:53;10.57;;;2.58;;
75488;SDS011;64069;46.396;48.102;2022-10-15T10:02:23;7.85;;;2.10;;
75488;SDS011;64069;46.396;48.102;2022-10-15T10:04:53;2.70;;;1.80;;
75488;SDS011;64069;46.396;48.102;2022-10-15T10:07:27;5.78;;;2.10;;
75488;SDS011;64069;46.396;48.102;2022-10-15T10:09:55;4.78;;;2.00;;
75488;SDS011;64069;46.396;48.102;2022-10-15T10:12:24;6.07;;;2.28;;
75488;SDS011;64069;46.396;48.102;2022-10-15T10:14:57;4.88;;;2.28;;
75488;SDS011;64069;46.396;48.102;2022-10-15T10:17:28;5.47;;;2.17;;
75488;SDS011;64069;46.396;48.102;2022-10-15T10:22:51;8.95;;;2.25;;
75488;SDS011;64069;46.396;48.102;2022-10-15T10:28:03;3.83;;;2.10;;
75488;SDS011;64069;46.396;48.102;2022-10-15T10:30:38;7.28;;;2.72;;
75488;SDS011;64069;46.396;48.102;2022-10-15T10:33:08;6.45;;;2.30;;
75488;SDS011;64069;46.396;48.102;2022-10-15T10:35:45;8.57;;;2.53;;
75488;SDS011;64069;46.396;48.102;2022-10-15T10:38:24;6.32;;;3.00;;
75488;SDS011;64069;46.396;48.102;2022-10-15T10:41:08;5.13;;;2.13;;
75488;SDS011;64069;46.396;48.102;2022-10-15T10:43:38;6.93;;;2.60;;
75488;SDS011;64069;46.396;48.102;2022-10-15T10:48:48;7.95;;;2.53;;
75488;SDS011;64069;46.396;48.102;2022-10-15T10:51:19;4.03;;;1.90;;
75488;SDS011;64069;46.396;48.102;2022-10-15T10:54:02;4.45;;;2.00;;
75488;SDS011;64069;46.396;48.102;2022-10-15T10:56:33;9.23;;;2.72;;
75488;SDS011;64069;46.396;48.102;2022-10-15T10:59:50;5.68;;;2.25;;
75488;SDS011;64069;46.396;48.102;2022-10-15T11:02:01;5.00;;;1.85;;
75488;SDS011;64069;46.396;48.102;2022-10-15T11:04:31;4.25;;;1.85;;
75488;SDS011;64069;46.396;48.102;2022-10-15T11:14:55;9.15;;;2.20;;
75488;SDS011;64069;46.396;48.102;2022-10-15T11:28:14;3.38;;;2.17;;
75488;SDS011;64069;46.396;48.102;2022-10-15T11:31:06;3.53;;;2.33;;
75488;SDS011;64069;46.396;48.102;2022-10-15T11:36:56;3.72;;;2.05;;
75488;SDS011;64069;46.396;48.102;2022-10-15T11:42:29;5.28;;;1.98;;
75488;SDS011;64069;46.396;48.102;2022-10-15T11:47:28;5.63;;;1.77;;
75488;SDS011;64069;46.396;48.102;2022-10-15T11:56:10;3.30;;;2.08;;
75488;SDS011;64069;46.396;48.102;2022-10-15T11:58:51;7.20;;;3.00;;
75488;SDS011;64069;46.396;48.102;2022-10-15T12:04:39;4.47;;;2.33;;
75488;SDS011;64069;46.396;48.102;2022-10-15T12:07:09;5.05;;;2.25;;
75488;SDS011;64069;46.396;48.102;2022-10-15T12:09:40;3.97;;;2.00;;
75488;SDS011;64069;46.396;48.102;2022-10-15T12:12:16;5.45;;;1.98;;
75488;SDS011;64069;46.396;48.102;2022-10-15T12:20:20;7.13;;;2.08;;
75488;SDS011;64069;46.396;48.102;2022-10-15T12:28:01;4.95;;;2.00;;
75488;SDS011;64069;46.396;48.102;2022-10-15T12:30:54;5.68;;;2.55;;
75488;SDS011;64069;46.396;48.102;2022-10-15T12:33:28;7.88;;;2.30;;
75488;SDS011;64069;46.396;48.102;2022-10-15T12:35:56;4.90;;;2.10;;
75488;SDS011;64069;46.396;48.102;2022-10-15T12:38:42;6.97;;;1.95;;
75488;SDS011;64069;46.396;48.102;2022-10-15T12:44:13;10.38;;;1.90;;
75488;SDS011;64069;46.396;48.102;2022-10-15T12:46:49;6.45;;;2.60;;
75488;SDS011;64069;46.396;48.102;2022-10-15T12:51:51;4.57;;;2.60;;
75488;SDS011;64069;46.396;48.102;2022-10-15T12:57:02;9.25;;;3.53;;
75488;SDS011;64069;46.396;48.102;2022-10-15T12:59:52;13.27;;;5.78;;
75488;SDS011;64069;46.396;48.102;2022-10-15T13:05:06;7.75;;;3.60;;
75488;SDS011;64069;46.396;48.102;2022-10-15T13:07:37;6.90;;;3.80;;
75488;SDS011;64069;46.396;48.102;2022-10-15T13:10:13;8.88;;;4.10;;
75488;SDS011;64069;46.396;48.102;2022-10-15T13:12:43;32.05;;;6.55;;
75488;SDS011;64069;46.396;48.102;2022-10-15T13:15:09;6.25;;;2.92;;
75488;SDS011;64069;46.396;48.102;2022-10-15T13:17:40;8.45;;;3.28;;
75488;SDS011;64069;46.396;48.102;2022-10-15T13:20:07;6.68;;;3.50;;
75488;SDS011;64069;46.396;48.102;2022-10-15T13:22:50;7.72;;;3.78;;
75488;SDS011;64069;46.396;48.102;2022-10-15T13:25:16;7.15;;;4.05;;
75488;SDS011;64069;46.396;48.102;2022-10-15T13:27:42;7.80;;;3.38;;
75488;SDS011;64069;46.396;48.102;2022-10-15T13:30:11;7.88;;;4.60;;
75488;SDS011;64069;46.396;48.102;2022-10-15T13:32:41;10.95;;;4.93;;
75488;SDS011;64069;46.396;48.102;2022-10-15T13:35:21;11.07;;;5.40;;
75488;SDS011;64069;46.396;48.102;2022-10-15T13:37:54;20.00;;;10.07;;
75488;SDS011;64069;46.396;48.102;2022-10-15T13:40:22;8.88;;;4.53;;
75488;SDS011;64069;46.396;48.102;2022-10-15T13:45:23;12.68;;;4.50;;
75488;SDS011;64069;46.396;48.102;2022-10-15T13:47:50;7.22;;;3.75;;
75488;SDS011;64069;46.396;48.102;2022-10-15T13:50:25;14.52;;;3.83;;
75488;SDS011;64069;46.396;48.102;2022-10-15T13:55:25;11.95;;;4.88;;
75488;SDS011;64069;46.396;48.102;2022-10-15T13:57:58;11.57;;;5.53;;
75488;SDS011;64069;46.396;48.102;2022-10-15T14:00:27;10.82;;;6.00;;
75488;SDS011;64069;46.396;48.102;2022-10-15T14:03:12;14.25;;;8.25;;
75488;SDS011;64069;46.396;48.102;2022-10-15T14:05:39;12.18;;;7.22;;
75488;SDS011;64069;46.396;48.102;2022-10-15T14:08:16;28.27;;;13.85;;
75488;SDS011;64069;46.396;48.102;2022-10-15T14:10:47;174.98;;;91.68;;
75488;SDS011;64069;46.396;48.102;2022-10-15T14:13:14;22.85;;;12.63;;
75488;SDS011;64069;46.396;48.102;2022-10-15T14:15:45;27.70;;;17.75;;
75488;SDS011;64069;46.396;48.102;2022-10-15T14:18:15;18.83;;;12.18;;
75488;SDS011;64069;46.396;48.102;2022-10-15T14:20:51;12.32;;;6.85;;
75488;SDS011;64069;46.396;48.102;2022-10-15T14:23:24;10.85;;;6.00;;
75488;SDS011;64069;46.396;48.102;2022-10-15T14:25:52;34.67;;;13.93;;
75488;SDS011;64069;46.396;48.102;2022-10-15T14:28:20;35.33;;;21.38;;
75488;SDS011;64069;46.396;48.102;2022-10-15T14:30:48;11.82;;;7.43;;
75488;SDS011;64069;46.396;48.102;2022-10-15T14:36:02;15.05;;;7.70;;
75488;SDS011;64069;46.396;48.102;2022-10-15T14:38:48;14.73;;;10.68;;
75488;SDS011;64069;46.396;48.102;2022-10-15T14:41:29;15.57;;;9.38;;
75488;SDS011;64069;46.396;48.102;2022-10-15T14:46:39;36.83;;;23.17;;
75488;SDS011;64069;46.396;48.102;2022-10-15T14:49:18;123.60;;;80.60;;
75488;SDS011;64069;46.396;48.102;2022-10-15T14:52:03;52.95;;;33.75;;
75488;SDS011;64069;46.396;48.102;2022-10-15T14:54:38;23.50;;;14.13;;
75488;SDS011;64069;46.396;48.102;2022-10-15T14:57:17;24.90;;;14.48;;
75488;SDS011;64069;46.396;48.102;2022-10-15T14:59:50;17.30;;;12.10;;
75488;SDS011;64069;46.396;48.102;2022-10-15T15:02:18;13.50;;;8.93;;
75488;SDS011;64069;46.396;48.102;2022-10-15T15:07:39;13.40;;;6.70;;
75488;SDS011;64069;46.396;48.102;2022-10-15T15:10:06;13.13;;;7.03;;
75488;SDS011;64069;46.396;48.102;2022-10-15T15:12:33;11.07;;;5.18;;
75488;SDS011;64069;46.396;48.102;2022-10-15T15:15:00;9.82;;;5.47;;
75488;SDS011;64069;46.396;48.102;2022-10-15T15:17:27;9.27;;;5.25;;
75488;SDS011;64069;46.396;48.102;2022-10-15T15:19:55;10.45;;;5.82;;
75488;SDS011;64069;46.396;48.102;2022-10-15T15:22:26;11.45;;;5.60;;
75488;SDS011;64069;46.396;48.102;2022-10-15T15:25:01;10.27;;;5.47;;
75488;SDS011;64069;46.396;48.102;2022-10-15T15:27:31;9.40;;;6.22;;
75488;SDS011;64069;46.396;48.102;2022-10-15T15:30:02;13.68;;;6.80;;
75488;SDS011;64069;46.396;48.102;2022-10-15T15:32:36;10.00;;;6.07;;
75488;SDS011;64069;46.396;48.102;2022-10-15T15:35:04;11.73;;;4.72;;
75488;SDS011;64069;46.396;48.102;2022-10-15T15:37:46;8.40;;;5.03;;
75488;SDS011;64069;46.396;48.102;2022-10-15T15:40:12;9.52;;;5.13;;
75488;SDS011;64069;46.396;48.102;2022-10-15T15:42:38;6.93;;;3.92;;
75488;SDS011;64069;46.396;48.102;2022-10-15T15:45:05;7.88;;;4.15;;
75488;SDS011;64069;46.396;48.102;2022-10-15T15:47:31;8.15;;;4.70;;
75488;SDS011;64069;46.396;48.102;2022-10-15T15:49:57;8.77;;;3.60;;
75488;SDS011;64069;46.396;48.102;2022-10-15T15:52:23;8.82;;;3.85;;
75488;SDS011;64069;46.396;48.102;2022-10-15T15:54:49;7.57;;;4.00;;
75488;SDS011;64069;46.396;48.102;2022-10-15T15:57:15;6.70;;;3.20;;
75488;SDS011;64069;46.396;48.102;2022-10-15T15:59:41;9.25;;;4.20;;
75488;SDS011;64069;46.396;48.102;2022-10-15T16:02:08;7.68;;;2.83;;
75488;SDS011;64069;46.396;48.102;2022-10-15T16:04:36;5.82;;;3.47;;
75488;SDS011;64069;46.396;48.102;2022-10-15T16:07:02;8.25;;;3.28;;
75488;SDS011;64069;46.396;48.102;2022-10-15T16:09:28;6.00;;;3.28;;
75488;SDS011;64069;46.396;48.102;2022-10-15T16:11:53;5.28;;;3.10;;
75488;SDS011;64069;46.396;48.102;2022-10-15T16:14:21;7.82;;;3.40;;
75488;SDS011;64069;46.396;48.102;2022-10-15T16:16:51;6.75;;;4.22;;
75488;SDS011;64069;46.396;48.102;2022-10-15T16:19:19;8.57;;;3.97;;
75488;SDS011;64069;46.396;48.102;2022-10-15T16:21:46;10.25;;;3.65;;
75488;SDS011;64069;46.396;48.102;2022-10-15T16:24:12;8.25;;;3.80;;
75488;SDS011;64069;46.396;48.102;2022-10-15T16:26:41;6.05;;;3.20;;
75488;SDS011;64069;46.396;48.102;2022-10-15T16:29:07;7.32;;;3.60;;
75488;SDS011;64069;46.396;48.102;2022-10-15T16:31:33;7.32;;;2.80;;
75488;SDS011;64069;46.396;48.102;2022-10-15T16:34:01;7.05;;;3.50;;
75488;SDS011;64069;46.396;48.102;2022-10-15T16:36:30;5.43;;;2.97;;
75488;SDS011;64069;46.396;48.102;2022-10-15T16:38:57;5.28;;;2.80;;
75488;SDS011;64069;46.396;48.102;2022-10-15T16:41:23;7.22;;;3.72;;
75488;SDS011;64069;46.396;48.102;2022-10-15T16:43:49;8.18;;;3.97;;
75488;SDS011;64069;46.396;48.102;2022-10-15T16:46:16;9.77;;;4.50;;
75488;SDS011;64069;46.396;48.102;2022-10-15T16:48:43;8.80;;;4.53;;
75488;SDS011;64069;46.396;48.102;2022-10-15T16:51:13;8.77;;;4.45;;
75488;SDS011;64069;46.396;48.102;2022-10-15T16:53:41;7.40;;;3.47;;